createdAt,value
2022-08-11T00:01:13.932Z,22.20
2022-08-11T00:03:51.215Z,21.95
2022-08-11T00:06:27.736Z,22.35
2022-08-11T00:08:57.085Z,21.88
2022-08-11T00:11:34.946Z,22.38
2022-08-11T00:14:05.224Z,21.63
2022-08-11T00:16:33.970Z,21.38
2022-08-11T00:19:05.132Z,22.25
2022-08-11T00:22:04.190Z,22.63
2022-08-11T00:24:34.724Z,22.58
2022-08-11T00:27:22.007Z,22.00
2022-08-11T00:29:55.055Z,22.02
2022-08-11T00:32:23.826Z,21.63
2022-08-11T00:35:54.982Z,22.08
2022-08-11T00:37:49.296Z,21.60
2022-08-11T00:40:24.370Z,22.08
2022-08-11T00:43:05.619Z,21.63
2022-08-11T00:45:56.613Z,21.10
2022-08-11T00:48:29.653Z,21.75
2022-08-11T00:51:10.955Z,20.42
2022-08-11T00:53:49.961Z,21.63
2022-08-11T00:56:58.846Z,20.80
2022-08-11T01:00:04.093Z,20.58
2022-08-11T01:02:53.887Z,21.10
2022-08-11T01:06:05.259Z,20.58
2022-08-11T01:09:02.205Z,19.90
2022-08-11T01:12:20.259Z,20.10
2022-08-11T01:15:25.732Z,21.08
2022-08-11T01:18:30.958Z,20.33
2022-08-11T01:21:58.282Z,20.40
2022-08-11T01:24:59.123Z,20.83
2022-08-11T01:28:00.857Z,20.38
2022-08-11T01:31:02.336Z,21.33
2022-08-11T01:34:19.101Z,20.38
2022-08-11T01:37:15.831Z,21.20
2022-08-11T01:40:31.847Z,20.75
2022-08-11T01:43:37.769Z,20.85
2022-08-11T01:46:12.059Z,20.55
2022-08-11T01:48:45.467Z,21.48
2022-08-11T01:51:21.164Z,21.25
2022-08-11T01:53:58.371Z,21.40
2022-08-11T01:56:39.332Z,21.08
2022-08-11T01:59:15.646Z,21.23
2022-08-11T02:02:00.438Z,20.58
2022-08-11T02:04:35.861Z,20.38
2022-08-11T02:07:12.656Z,20.83
2022-08-11T02:09:52.483Z,21.25
2022-08-11T02:12:42.110Z,20.95
2022-08-11T02:15:26.842Z,21.13
2022-08-11T02:18:05.105Z,20.65
2022-08-11T02:20:59.732Z,20.00
2022-08-11T02:24:07.076Z,20.40
2022-08-11T02:26:38.326Z,20.30
2022-08-11T02:29:15.237Z,20.27
2022-08-11T02:32:25.881Z,20.63
2022-08-11T02:35:03.153Z,20.15
2022-08-11T02:37:43.786Z,20.38
2022-08-11T02:40:21.779Z,20.00
2022-08-11T02:43:10.619Z,20.15
2022-08-11T02:45:55.148Z,20.70
2022-08-11T02:48:55.045Z,21.10
2022-08-11T02:51:36.300Z,19.98
2022-08-11T02:54:12.894Z,19.63
2022-08-11T02:56:52.237Z,20.00
2022-08-11T02:59:54.361Z,20.08
2022-08-11T03:02:33.262Z,21.10
2022-08-11T03:05:09.197Z,20.75
2022-08-11T03:07:52.299Z,20.92
2022-08-11T03:10:24.791Z,20.73
2022-08-11T03:13:15.962Z,21.50
2022-08-11T03:16:08.939Z,21.52
2022-08-11T03:18:43.967Z,21.35
2022-08-11T03:21:21.205Z,21.58
2022-08-11T03:23:57.300Z,20.98
2022-08-11T03:26:30.711Z,21.33
2022-08-11T03:29:07.818Z,20.65
2022-08-11T03:31:46.084Z,20.38
2022-08-11T03:34:17.690Z,21.35
2022-08-11T03:37:16.505Z,21.40
2022-08-11T03:39:59.242Z,21.63
2022-08-11T03:42:33.888Z,20.45
2022-08-11T03:45:16.512Z,21.38
2022-08-11T03:48:03.108Z,21.67
2022-08-11T03:50:55.014Z,21.38
2022-08-11T03:53:40.903Z,20.52
2022-08-11T03:56:43.254Z,20.40
2022-08-11T03:59:54.259Z,20.40
2022-08-11T04:02:57.051Z,20.00
2022-08-11T04:06:14.645Z,20.55
2022-08-11T04:09:27.594Z,20.67
2022-08-11T04:12:17.352Z,20.77
2022-08-11T04:15:37.144Z,21.05
2022-08-11T04:18:32.205Z,20.80
2022-08-11T04:21:22.611Z,20.77
2022-08-11T04:24:38.702Z,20.65
2022-08-11T04:27:39.847Z,20.13
2022-08-11T04:30:13.339Z,20.08
2022-08-11T04:33:12.996Z,20.42
2022-08-11T04:35:53.562Z,19.83
2022-08-11T04:38:50.836Z,19.80
2022-08-11T04:42:01.049Z,19.13
2022-08-11T04:45:21.538Z,18.83
2022-08-11T04:48:22.645Z,18.02
2022-08-11T04:51:26.694Z,18.15
2022-08-11T04:54:28.453Z,18.23
2022-08-11T04:57:21.101Z,18.42
2022-08-11T05:00:23.721Z,18.23
2022-08-11T05:03:29.115Z,17.10
2022-08-11T05:06:30.594Z,17.45
2022-08-11T05:09:35.248Z,17.30
2022-08-11T05:12:22.081Z,17.15
2022-08-11T05:15:10.358Z,17.13
2022-08-11T05:18:12.547Z,17.63
2022-08-11T05:21:05.383Z,17.45
2022-08-11T05:23:54.346Z,16.35
2022-08-11T05:26:48.879Z,15.70
2022-08-11T05:29:59.067Z,15.82
2022-08-11T05:32:50.149Z,15.25
2022-08-11T05:36:00.149Z,14.48
2022-08-11T05:38:35.239Z,15.00
2022-08-11T05:41:21.206Z,14.93
2022-08-11T05:44:20.446Z,14.45
2022-08-11T05:47:10.179Z,15.13
2022-08-11T05:49:57.922Z,14.85
2022-08-11T05:52:46.879Z,13.70
2022-08-11T05:55:52.513Z,14.60
2022-08-11T05:58:39.733Z,14.15
2022-08-11T06:01:12.160Z,14.68
2022-08-11T06:04:03.700Z,14.48
2022-08-11T06:06:32.629Z,13.60
2022-08-11T06:09:01.553Z,14.27
2022-08-11T06:11:43.916Z,13.52
2022-08-11T06:14:14.099Z,13.73
2022-08-11T06:16:43.479Z,13.45
2022-08-11T06:19:14.965Z,13.68
2022-08-11T06:21:48.860Z,13.95
2022-08-11T06:24:17.716Z,13.98
2022-08-11T06:29:47.814Z,13.77
2022-08-11T06:32:17.656Z,14.02
2022-08-11T06:35:05.880Z,13.80
2022-08-11T06:37:45.703Z,13.82
2022-08-11T06:40:27.440Z,13.13
2022-08-11T06:43:02.191Z,13.32
2022-08-11T06:45:35.296Z,11.75
2022-08-11T06:48:06.535Z,12.48
2022-08-11T06:50:53.685Z,13.25
2022-08-11T06:53:22.609Z,12.07
2022-08-11T06:56:09.424Z,11.05
2022-08-11T06:58:57.883Z,10.57
2022-08-11T07:01:38.383Z,10.35
2022-08-11T07:04:09.962Z,9.30
2022-08-11T07:07:11.633Z,9.05
2022-08-11T07:10:32.833Z,8.90
2022-08-11T07:17:42.894Z,7.85
2022-08-11T07:20:31.871Z,7.82
2022-08-11T07:23:20.167Z,7.50
2022-08-11T07:26:10.639Z,7.07
2022-08-11T07:28:56.317Z,6.70
2022-08-11T07:31:31.282Z,6.30
2022-08-11T07:34:18.169Z,5.93
2022-08-11T07:36:52.841Z,5.72
2022-08-11T07:39:28.382Z,5.80
2022-08-11T07:41:59.399Z,5.28
2022-08-11T07:44:35.135Z,5.40
2022-08-11T07:47:23.917Z,4.88
2022-08-11T07:50:11.755Z,5.35
2022-08-11T07:52:41.660Z,4.95
2022-08-11T07:55:16.989Z,5.10
2022-08-11T07:58:17.004Z,5.47
2022-08-11T08:01:21.491Z,5.05
2022-08-11T08:04:13.442Z,5.70
2022-08-11T08:06:59.561Z,5.13
2022-08-11T08:09:47.674Z,5.88
2022-08-11T08:12:34.547Z,5.25
2022-08-11T08:18:26.508Z,5.55
2022-08-11T08:21:12.235Z,5.80
2022-08-11T08:23:45.667Z,5.85
2022-08-11T08:26:48.275Z,5.50
2022-08-11T08:29:40.442Z,5.30
2022-08-11T08:32:15.247Z,5.57
2022-08-11T08:34:44.515Z,5.28
2022-08-11T08:37:15.835Z,5.43
2022-08-11T08:40:02.154Z,5.47
2022-08-11T08:42:44.884Z,5.85
2022-08-11T08:45:18.434Z,5.03
2022-08-11T08:47:53.456Z,4.35
2022-08-11T08:50:46.849Z,6.07
2022-08-11T08:53:17.441Z,5.50
2022-08-11T08:55:47.966Z,4.30
2022-08-11T08:58:20.525Z,4.95
2022-08-11T09:00:52.462Z,4.78
2022-08-11T09:03:41.016Z,5.15
2022-08-11T09:06:09.677Z,5.00
2022-08-11T09:08:40.958Z,4.55
2022-08-11T09:11:26.651Z,3.97
2022-08-11T09:14:04.895Z,4.85
2022-08-11T09:16:38.595Z,4.13
2022-08-11T09:19:08.823Z,3.92
2022-08-11T09:21:49.064Z,3.50
2022-08-11T09:24:36.980Z,3.70
2022-08-11T09:27:09.649Z,4.10
2022-08-11T09:29:39.952Z,3.88
2022-08-11T09:32:08.997Z,3.97
2022-08-11T09:34:40.530Z,4.25
2022-08-11T09:37:55.794Z,3.70
2022-08-11T09:40:33.735Z,3.70
2022-08-11T09:43:23.189Z,3.72
2022-08-11T09:45:54.438Z,3.45
2022-08-11T09:48:24.997Z,3.75
2022-08-11T09:50:56.117Z,3.53
2022-08-11T09:53:36.020Z,3.45
2022-08-11T09:56:30.396Z,3.55
2022-08-11T09:59:01.761Z,3.42
2022-08-11T10:01:34.340Z,3.83
2022-08-11T10:04:07.177Z,3.50
2022-08-11T10:06:56.417Z,4.13
2022-08-11T10:09:27.780Z,3.90
2022-08-11T10:12:03.011Z,3.67
2022-08-11T10:14:53.003Z,3.47
2022-08-11T10:17:24.775Z,3.80
2022-08-11T10:20:05.245Z,4.35
2022-08-11T10:22:54.836Z,3.63
2022-08-11T10:25:40.991Z,3.60
2022-08-11T10:28:28.379Z,3.30
2022-08-11T10:31:18.247Z,3.40
2022-08-11T10:34:04.012Z,3.30
2022-08-11T10:36:34.788Z,3.25
2022-08-11T10:39:09.663Z,3.15
2022-08-11T10:42:08.282Z,3.33
2022-08-11T10:44:39.958Z,3.30
2022-08-11T10:47:30.304Z,3.10
2022-08-11T10:50:21.140Z,3.10
2022-08-11T10:53:12.509Z,2.90
2022-08-11T10:58:50.153Z,3.10
2022-08-11T11:01:27.037Z,2.90
2022-08-11T11:04:04.736Z,2.85
2022-08-11T11:06:50.536Z,3.30
2022-08-11T11:09:23.327Z,3.47
2022-08-11T11:12:12.188Z,3.63
2022-08-11T11:15:01.261Z,2.95
2022-08-11T11:17:55.447Z,2.90
2022-08-11T11:20:34.771Z,2.85
2022-08-11T11:23:17.485Z,2.75
2022-08-11T11:26:10.814Z,3.00
2022-08-11T11:29:14.096Z,2.72
2022-08-11T11:31:54.643Z,2.83
2022-08-11T11:34:53.027Z,2.90
2022-08-11T11:37:23.924Z,2.97
2022-08-11T11:40:00.472Z,3.35
2022-08-11T11:42:31.070Z,3.47
2022-08-11T11:45:23.439Z,3.40
2022-08-11T11:47:55.029Z,3.55
2022-08-11T11:50:31.708Z,3.67
2022-08-11T11:53:03.077Z,3.00
2022-08-11T11:55:33.661Z,3.15
2022-08-11T11:58:19.564Z,3.13
2022-08-11T12:01:06.315Z,2.80
2022-08-11T12:03:35.798Z,2.90
2022-08-11T12:06:04.854Z,3.10
2022-08-11T12:08:33.588Z,2.85
2022-08-11T12:11:27.276Z,3.00
2022-08-11T12:14:10.817Z,2.80
2022-08-11T12:16:45.563Z,3.03
2022-08-11T12:19:21.983Z,2.60
2022-08-11T12:22:15.505Z,2.80
2022-08-11T12:25:04.317Z,3.00
2022-08-11T12:30:36.258Z,2.70
2022-08-11T12:33:05.136Z,2.50
2022-08-11T12:35:38.185Z,2.88
2022-08-11T12:38:12.943Z,2.70
2022-08-11T12:41:16.467Z,3.13
2022-08-11T12:44:37.350Z,2.85
2022-08-11T12:47:11.050Z,2.78
2022-08-11T12:50:06.070Z,2.70
2022-08-11T12:52:54.552Z,2.70
2022-08-11T12:55:40.142Z,2.75
2022-08-11T12:58:19.027Z,2.50
2022-08-11T13:01:06.796Z,2.42
2022-08-11T13:04:09.958Z,2.90
2022-08-11T13:06:43.240Z,2.70
2022-08-11T13:09:18.695Z,2.67
2022-08-11T13:12:05.151Z,3.03
2022-08-11T13:14:35.156Z,2.47
2022-08-11T13:17:40.418Z,2.90
2022-08-11T13:20:14.627Z,2.67
2022-08-11T13:22:46.394Z,2.70
2022-08-11T13:25:16.617Z,2.67
2022-08-11T13:27:48.853Z,2.42
2022-08-11T13:30:40.273Z,2.60
2022-08-11T13:33:17.594Z,2.75
2022-08-11T13:35:50.842Z,2.58
2022-08-11T13:38:23.239Z,2.67
2022-08-11T13:40:55.962Z,2.50
2022-08-11T13:43:25.302Z,2.65
2022-08-11T13:46:14.609Z,2.50
2022-08-11T13:48:47.044Z,2.60
2022-08-11T13:51:35.999Z,3.10
2022-08-11T13:54:09.098Z,2.70
2022-08-11T13:56:40.778Z,2.65
2022-08-11T13:59:12.708Z,2.75
2022-08-11T14:02:19.222Z,2.80
2022-08-11T14:04:40.612Z,2.60
2022-08-11T14:07:15.881Z,3.08
2022-08-11T14:09:45.863Z,3.13
2022-08-11T14:12:34.588Z,3.25
2022-08-11T14:15:08.830Z,3.03
2022-08-11T14:17:48.103Z,2.97
2022-08-11T14:20:40.071Z,3.13
2022-08-11T14:23:11.356Z,2.90
2022-08-11T14:26:02.774Z,2.92
2022-08-11T14:28:42.022Z,3.15
2022-08-11T14:31:15.796Z,2.80
2022-08-11T14:33:58.187Z,3.00
2022-08-11T14:36:43.386Z,3.40
2022-08-11T14:39:27.273Z,3.22
2022-08-11T14:42:19.973Z,3.20
2022-08-11T14:45:16.650Z,3.00
2022-08-11T14:47:50.229Z,3.00
2022-08-11T14:50:27.158Z,3.35
2022-08-11T14:52:59.486Z,3.00
2022-08-11T14:55:48.186Z,3.40
2022-08-11T14:58:21.826Z,3.25
2022-08-11T15:00:54.586Z,3.35
2022-08-11T15:03:27.674Z,3.38
2022-08-11T15:05:58.733Z,2.88
2022-08-11T15:08:48.661Z,3.10
2022-08-11T15:11:41.373Z,2.90
2022-08-11T15:14:11.668Z,3.22
2022-08-11T15:17:01.011Z,2.90
2022-08-11T15:19:37.515Z,3.00
2022-08-11T15:22:28.624Z,3.40
2022-08-11T15:25:11.903Z,2.92
2022-08-11T15:28:01.960Z,3.03
2022-08-11T15:30:56.754Z,2.83
2022-08-11T15:33:47.532Z,3.03
2022-08-11T15:36:37.559Z,3.08
2022-08-11T15:39:26.189Z,3.30
2022-08-11T15:43:01.442Z,2.97
2022-08-11T15:45:50.345Z,3.20
2022-08-11T15:48:46.510Z,2.92
2022-08-11T15:51:25.809Z,3.35
2022-08-11T15:55:04.340Z,3.00
2022-08-11T15:57:39.631Z,3.28
2022-08-11T16:00:34.554Z,2.83
2022-08-11T16:04:06.502Z,2.95
2022-08-11T16:06:19.718Z,2.90
2022-08-11T16:08:54.593Z,2.95
2022-08-11T16:11:23.801Z,2.70
2022-08-11T16:17:47.380Z,2.78
2022-08-11T16:20:24.693Z,6.07
2022-08-11T16:23:06.981Z,2.80
2022-08-11T16:27:01.593Z,2.80
2022-08-11T16:28:34.746Z,2.75
2022-08-11T16:31:22.379Z,2.95
2022-08-11T16:33:53.695Z,2.53
2022-08-11T16:39:51.141Z,2.60
2022-08-11T16:43:08.855Z,3.30
2022-08-11T16:45:43.241Z,3.05
2022-08-11T16:48:33.056Z,2.60
2022-08-11T16:51:07.340Z,2.78
2022-08-11T16:54:03.678Z,2.75
2022-08-11T16:56:37.600Z,3.60
2022-08-11T16:59:20.419Z,2.65
2022-08-11T17:08:57.541Z,2.50
2022-08-11T17:11:55.581Z,3.33
2022-08-11T17:14:38.351Z,3.80
2022-08-11T17:17:09.476Z,2.72
2022-08-11T17:20:40.241Z,2.63
2022-08-11T17:23:00.131Z,2.47
2022-08-11T17:26:03.219Z,2.55
2022-08-11T17:28:46.321Z,2.50
2022-08-11T17:31:39.994Z,2.20
2022-08-11T17:35:09.549Z,2.35
2022-08-11T17:37:44.591Z,2.70
2022-08-11T17:40:33.581Z,2.72
2022-08-11T17:43:22.628Z,2.58
2022-08-11T17:46:13.813Z,2.72
2022-08-11T17:48:47.660Z,2.40
2022-08-11T17:51:35.015Z,2.50
2022-08-11T17:54:49.480Z,2.55
2022-08-11T17:57:51.984Z,2.42
2022-08-11T18:00:20.493Z,2.40
2022-08-11T18:03:09.144Z,2.75
2022-08-11T18:05:43.786Z,2.65
2022-08-11T18:08:35.409Z,2.20
2022-08-11T18:12:07.179Z,2.60
2022-08-11T18:14:31.266Z,2.83
2022-08-11T18:17:17.703Z,2.67
2022-08-11T18:20:07.892Z,2.28
2022-08-11T18:23:01.808Z,2.50
2022-08-11T18:25:56.764Z,2.70
2022-08-11T18:28:56.815Z,2.33
2022-08-11T18:31:44.796Z,2.30
2022-08-11T18:34:35.315Z,2.65
2022-08-11T18:37:30.242Z,2.45
2022-08-11T18:40:19.970Z,2.65
2022-08-11T18:43:09.779Z,2.10
2022-08-11T18:46:07.007Z,2.67
2022-08-11T18:48:55.094Z,2.50
2022-08-11T18:51:42.353Z,2.55
2022-08-11T18:54:31.717Z,2.53
2022-08-11T18:57:22.564Z,2.75
2022-08-11T19:00:12.440Z,2.45
2022-08-11T19:03:00.208Z,2.60
2022-08-11T19:06:32.445Z,2.40
2022-08-11T19:09:04.209Z,2.65
2022-08-11T19:11:53.931Z,3.10
2022-08-11T19:14:41.461Z,2.70
2022-08-11T19:17:43.443Z,2.50
2022-08-11T19:20:34.492Z,2.72
2022-08-11T19:23:27.809Z,2.80
2022-08-11T19:26:17.858Z,2.70
2022-08-11T19:30:07.992Z,2.92
2022-08-11T19:32:18.268Z,2.83
2022-08-11T19:35:06.550Z,2.67
2022-08-11T19:37:54.365Z,2.65
2022-08-11T19:40:41.563Z,3.17
2022-08-11T19:43:29.374Z,2.80
2022-08-11T19:46:20.431Z,3.10
2022-08-11T19:49:10.605Z,3.25
2022-08-11T19:51:59.264Z,3.00
2022-08-11T19:54:46.940Z,3.15
2022-08-11T19:57:39.301Z,3.00
2022-08-11T20:00:30.044Z,3.30
2022-08-11T20:03:19.205Z,3.20
2022-08-11T20:06:05.933Z,2.90
2022-08-11T20:08:56.455Z,3.00
2022-08-11T20:11:45.790Z,3.10
2022-08-11T20:14:31.809Z,2.83
2022-08-11T20:17:18.793Z,3.13
2022-08-11T20:20:07.776Z,3.30
2022-08-11T20:22:53.230Z,3.38
2022-08-11T20:25:42.410Z,3.42
2022-08-11T20:28:33.166Z,3.40
2022-08-11T20:31:18.756Z,3.00
2022-08-11T20:34:05.472Z,3.10
2022-08-11T20:36:55.025Z,3.28
2022-08-11T20:39:43.106Z,3.20
2022-08-11T20:42:31.295Z,3.40
2022-08-11T20:45:23.493Z,3.15
2022-08-11T20:48:15.524Z,2.92
2022-08-11T20:54:13.680Z,3.05
2022-08-11T20:57:00.131Z,3.00
2022-08-11T20:59:50.137Z,3.17
2022-08-11T21:02:44.896Z,3.10
2022-08-11T21:06:08.152Z,3.00
2022-08-11T21:08:38.884Z,3.10
2022-08-11T21:11:30.727Z,3.10
2022-08-11T21:14:17.993Z,3.45
2022-08-11T21:17:27.411Z,3.50
2022-08-11T21:20:20.666Z,3.53
2022-08-11T21:23:14.917Z,3.10
2022-08-11T21:26:14.582Z,3.30
2022-08-11T21:29:04.325Z,3.42
2022-08-11T21:31:51.133Z,3.22
2022-08-11T21:34:40.151Z,3.13
2022-08-11T21:37:27.256Z,3.40
2022-08-11T21:40:17.090Z,3.60
2022-08-11T21:43:05.802Z,3.50
2022-08-11T21:45:55.380Z,3.17
2022-08-11T21:48:44.871Z,3.40
2022-08-11T21:51:31.042Z,3.50
2022-08-11T21:54:17.854Z,3.50
2022-08-11T21:57:05.342Z,3.85
2022-08-11T22:00:00.255Z,3.70
2022-08-11T22:02:50.914Z,3.65
2022-08-11T22:05:40.194Z,3.42
2022-08-11T22:08:26.920Z,3.72
2022-08-11T22:11:12.738Z,3.33
2022-08-11T22:14:06.138Z,3.58
2022-08-11T22:16:53.935Z,3.47
2022-08-11T22:19:42.739Z,3.78
2022-08-11T22:22:30.852Z,3.58
2022-08-11T22:25:18.456Z,3.50
2022-08-11T22:28:04.881Z,3.45
2022-08-11T22:30:50.392Z,3.70
2022-08-11T22:33:37.709Z,4.00
2022-08-11T22:36:36.989Z,4.18
2022-08-11T22:39:25.361Z,4.10
2022-08-11T22:42:10.808Z,3.88
2022-08-11T22:44:56.148Z,3.67
2022-08-11T22:47:43.374Z,3.63
2022-08-11T22:50:29.268Z,3.92
2022-08-11T22:53:17.420Z,3.63
2022-08-11T22:56:03.532Z,3.63
2022-08-11T22:58:50.040Z,3.90
2022-08-11T23:01:36.283Z,3.58
2022-08-11T23:04:22.785Z,3.80
2022-08-11T23:07:09.518Z,3.70
2022-08-11T23:09:57.645Z,3.95
2022-08-11T23:12:45.448Z,3.70
2022-08-11T23:15:33.368Z,4.15
2022-08-11T23:18:21.292Z,3.83
2022-08-11T23:21:07.674Z,4.28
2022-08-11T23:23:55.998Z,3.70
2022-08-11T23:26:44.469Z,3.80
2022-08-11T23:29:30.526Z,3.38
2022-08-11T23:32:16.355Z,3.67
2022-08-11T23:35:40.576Z,3.70
2022-08-11T23:38:12.866Z,4.00
2022-08-11T23:40:58.697Z,3.95
2022-08-11T23:43:45.409Z,3.70
2022-08-11T23:46:30.806Z,4.40
2022-08-11T23:49:20.292Z,3.90
2022-08-11T23:52:07.186Z,4.22
2022-08-11T23:54:53.560Z,4.30
2022-08-11T23:57:47.815Z,4.00
